10:38
Airports
History
Links
Donate
Help keep this website running!
PayPal
Bitcoin
Information on this page is community maintained and may be outdated or inaccurate and is intended for reference only or PC simulator navigating.
Always use approved charts for navigating.
SJGA
Aerorural Floramazon
Aerorural Floramazon (SJGA)
Aveiro, Pará, Brazil
4
Lat/Lng:3° 42' 8" S / 56° 3' 14" W
-3.702222 / -56.053889
Elevation:131'ft 40mMSL
ID / ICAO:SJGA
Runways:1
Longest:(11-29) 595.5m 1,954ft Dirt
Distance To
Airport ID:
Nearby WeatherUpdated 05-25-17 10:00 GMT
Nearby weather at SBIH, ITAITUBA located 37.5 nautical miles from SJGA
Altimeter: 29.91
Visibility: 6.2 statute miles
Wind: 0 knots (000°)
Temp: 24°c 75°f
Humidity: 94.2%

METAR: SBIH 251000Z 00000KT CAVOK 24/23 Q1013

(Powered by phpweather)
Runway 11 / 29
Dimensions:595.5 x 20.1m 1954' x 66'ft
Surface:Dirt
Runway 11 [A]Runway 29 [B]
Heading:092°TH 272°TH
Lat:
Lng:
3° 42' 7.5"S
56° 3' 23.73"W
3° 42' 8.5"S
56° 3' 4.27"W
User Notes and Comments
Google Map
Nearby Airports
(C) Rudy Kappel 8.7 NM
SMTB SW 229°
4 Agropastoril Sol Nascente 22.5 NM
SDUA NW 306°
(C) ITAITUBA 37.5 NM
SBIH (WX) S 174°
4 Santa Teresa 40.8 NM
SNTJ S 183°
(U) FAZENDA ROSA DE MAIO 42.5 NM
SNRB S 184°
(U) CAIMA 43.1 NM
SIRJ SSW 195°
(C) Vincent Faiks 48.2 NM
SMPA ENE 59°
VFR Chart
Flight Planning at SkyVector.com